Time;durP1;ratioP1;P1;durP2;ratioP2;P2;SDS_P1;SDS_P2;PMS_P1;PMS_P2;Temp;Humidity;BMP_temperature;BMP_pressure;BME280_temperature;BME280_humidity;BME280_pressure;Samples;Min_cycle;Max_cycle;Signal;HPM_P1;HPM_P2
2022/06/19 00:01:02;;;;;;;0.52;0.52;;;23.60;54.50;;;;;;4191517;28;20407;-66
2022/06/19 00:03:28;;;;;;;0.00;0.00;;;23.60;54.30;;;;;;4192240;28;20048;-66
2022/06/19 00:05:50;;;;;;;0.00;0.00;;;23.60;53.60;;;;;;4195488;28;20047;-66
2022/06/19 00:08:11;;;;;;;0.00;0.00;;;23.60;53.70;;;;;;4195446;28;20051;-66
2022/06/19 00:10:35;;;;;;;0.00;0.00;;;23.60;53.30;;;;;;4195759;28;20372;-66
2022/06/19 00:12:57;;;;;;;0.00;0.00;;;23.60;52.30;;;;;;4195266;28;20462;-66
2022/06/19 00:15:19;;;;;;;0.00;0.00;;;23.50;52.30;;;;;;4195453;28;20055;-65
2022/06/19 00:17:41;;;;;;;0.00;0.00;;;23.50;53.00;;;;;;4195523;28;20044;-66
2022/06/19 00:20:05;;;;;;;0.55;0.55;;;23.50;53.50;;;;;;4194960;28;20506;-65
2022/06/19 00:22:27;;;;;;;0.00;0.00;;;23.50;54.00;;;;;;4195202;28;20054;-65
2022/06/19 00:24:49;;;;;;;0.00;0.00;;;23.50;53.40;;;;;;4194406;28;20079;-64
2022/06/19 00:27:13;;;;;;;0.00;0.00;;;23.50;53.10;;;;;;4193324;28;20090;-65
2022/06/19 00:29:35;;;;;;;0.00;0.00;;;23.50;52.60;;;;;;4193801;28;20054;-65
2022/06/19 00:31:58;;;;;;;0.00;0.00;;;23.50;52.40;;;;;;4195107;28;20047;-66
2022/06/19 00:34:20;;;;;;;0.47;0.47;;;23.40;52.60;;;;;;4194552;28;20052;-67
2022/06/19 00:36:43;;;;;;;0.00;0.00;;;23.40;52.70;;;;;;4194155;28;20482;-66
2022/06/19 00:39:05;;;;;;;0.00;0.00;;;23.40;52.30;;;;;;4192237;28;20411;-66
2022/06/19 00:41:33;;;;;;;0.00;0.00;;;23.40;52.10;;;;;;4195012;28;20426;-65
2022/06/19 00:44:02;;;;;;;0.10;0.10;;;23.40;52.90;;;;;;4194986;28;20418;-65
2022/06/19 00:46:48;;;;;;;0.00;0.00;;;23.40;52.50;;;;;;4194578;28;20121;-65
2022/06/19 00:49:13;;;;;;;0.00;0.00;;;23.40;52.70;;;;;;4194210;28;20056;-65
2022/06/19 00:51:35;;;;;;;0.00;0.00;;;23.30;52.80;;;;;;4192929;28;20515;-65
2022/06/19 00:53:57;;;;;;;0.00;0.00;;;23.30;52.80;;;;;;4194719;28;20140;-65
2022/06/19 00:56:21;;;;;;;0.98;0.80;;;23.30;53.50;;;;;;4194563;28;20060;-65
2022/06/19 00:58:44;;;;;;;0.00;0.00;;;23.30;52.90;;;;;;4159740;28;20068;-66
2022/06/19 01:01:12;;;;;;;0.00;0.00;;;23.30;52.80;;;;;;4161494;28;20057;-65
2022/06/19 01:03:42;;;;;;;0.00;0.00;;;23.30;53.50;;;;;;4159846;28;20068;-65
2022/06/19 01:06:05;;;;;;;0.63;0.63;;;23.30;52.80;;;;;;4161447;28;20061;-65
2022/06/19 01:08:26;;;;;;;0.20;0.20;;;23.30;52.20;;;;;;4192636;28;20111;-66
2022/06/19 01:10:52;;;;;;;0.00;0.00;;;23.20;51.80;;;;;;4194489;28;20052;-66
2022/06/19 01:13:15;;;;;;;0.00;0.00;;;23.20;52.00;;;;;;4193013;28;20139;-65
2022/06/19 01:15:39;;;;;;;0.00;0.00;;;23.20;53.10;;;;;;4193296;28;20052;-66
2022/06/19 01:18:06;;;;;;;0.10;0.10;;;23.20;52.40;;;;;;4192438;28;20642;-66
2022/06/19 01:20:29;;;;;;;0.00;0.00;;;23.10;52.60;;;;;;4194053;28;20072;-66
2022/06/19 01:22:59;;;;;;;0.20;0.20;;;23.10;52.40;;;;;;4193962;28;20882;-65
2022/06/19 01:25:25;;;;;;;0.00;0.00;;;23.10;53.50;;;;;;4193840;28;20051;-65
2022/06/19 01:30:32;;;;;;;0.00;0.00;;;23.00;52.90;;;;;;4194019;28;20048;-66
2022/06/19 01:32:57;;;;;;;0.00;0.00;;;23.00;52.90;;;;;;4193656;28;20050;-66
2022/06/19 01:35:22;;;;;;;0.52;0.52;;;23.10;53.10;;;;;;4193474;28;20044;-67
2022/06/19 01:37:44;;;;;;;0.00;0.00;;;23.00;53.10;;;;;;4193534;28;20117;-66
2022/06/19 01:40:13;;;;;;;0.00;0.00;;;23.00;53.20;;;;;;4191893;28;20041;-67
2022/06/19 01:42:36;;;;;;;0.10;0.10;;;23.00;53.50;;;;;;4193557;28;20435;-66
2022/06/19 01:44:59;;;;;;;5.57;2.50;;;23.00;53.70;;;;;;4193555;28;20071;-66
2022/06/19 01:47:24;;;;;;;0.35;0.32;;;23.00;53.70;;;;;;4193956;28;20056;-65
2022/06/19 01:49:50;;;;;;;0.10;0.10;;;23.00;53.60;;;;;;4193148;28;20134;-65
2022/06/19 01:52:11;;;;;;;0.00;0.00;;;23.00;53.80;;;;;;4193801;28;20052;-64
2022/06/19 01:54:38;;;;;;;0.00;0.00;;;23.00;54.00;;;;;;4193698;28;20059;-65
2022/06/19 01:57:00;;;;;;;0.35;0.35;;;22.90;54.20;;;;;;4193501;28;20525;-66
2022/06/19 01:59:28;;;;;;;0.00;0.00;;;22.90;54.30;;;;;;4192081;28;20062;-65
2022/06/19 02:01:53;;;;;;;0.80;0.80;;;22.90;54.50;;;;;;4193717;28;20452;-65
2022/06/19 02:04:15;;;;;;;0.00;0.00;;;22.90;54.60;;;;;;4193588;28;20070;-65
2022/06/19 02:06:41;;;;;;;0.00;0.00;;;22.90;54.80;;;;;;4193410;28;20110;-65
2022/06/19 02:09:04;;;;;;;2.80;0.85;;;22.80;54.90;;;;;;4191586;28;20071;-65
2022/06/19 02:11:27;;;;;;;0.20;0.20;;;22.80;55.00;;;;;;4193291;28;20107;-65
2022/06/19 02:13:49;;;;;;;0.00;0.00;;;22.80;55.00;;;;;;4193017;28;20037;-66
2022/06/19 02:16:15;;;;;;;0.57;0.57;;;22.80;55.20;;;;;;4191896;28;20151;-65
2022/06/19 02:18:41;;;;;;;0.00;0.00;;;22.80;55.30;;;;;;4192803;28;20098;-66
2022/06/19 02:21:05;;;;;;;0.00;0.00;;;22.80;55.40;;;;;;4193062;28;20052;-65
2022/06/19 02:23:31;;;;;;;0.00;0.00;;;22.70;55.40;;;;;;4193808;28;20079;-65
2022/06/19 02:25:54;;;;;;;0.25;0.25;;;22.70;55.50;;;;;;4193159;28;20442;-67
2022/06/19 02:28:18;;;;;;;0.00;0.00;;;22.70;55.60;;;;;;4192854;28;20059;-67
2022/06/19 02:30:41;;;;;;;0.00;0.00;;;22.70;55.60;;;;;;4190210;28;20048;-66
2022/06/19 02:33:07;;;;;;;0.00;0.00;;;22.70;55.50;;;;;;4192953;28;20125;-67
2022/06/19 02:35:29;;;;;;;0.00;0.00;;;22.70;55.80;;;;;;4193025;28;20090;-66
2022/06/19 02:37:54;;;;;;;0.00;0.00;;;22.70;56.00;;;;;;4193231;28;20071;-67
2022/06/19 02:40:24;;;;;;;0.22;0.22;;;22.60;56.30;;;;;;4192283;28;20072;-67
2022/06/19 02:42:47;;;;;;;0.40;0.40;;;22.60;56.70;;;;;;4192293;28;20849;-68
2022/06/19 02:45:14;;;;;;;0.00;0.00;;;22.60;56.90;;;;;;4192758;28;20286;-67
2022/06/19 02:47:38;;;;;;;0.00;0.00;;;22.60;57.00;;;;;;4191678;28;20048;-67
2022/06/19 02:50:01;;;;;;;0.00;0.00;;;22.60;57.10;;;;;;4192599;28;20117;-66
2022/06/19 02:52:23;;;;;;;0.00;0.00;;;22.60;57.20;;;;;;4192660;28;20131;-67
2022/06/19 02:54:46;;;;;;;0.03;0.03;;;22.60;57.30;;;;;;4192554;28;20094;-67
2022/06/19 02:57:10;;;;;;;0.32;0.32;;;22.60;57.30;;;;;;4192126;28;20127;-67
2022/06/19 02:59:32;;;;;;;0.00;0.00;;;22.60;57.40;;;;;;4192210;28;20041;-67
2022/06/19 03:01:54;;;;;;;0.00;0.00;;;22.60;57.40;;;;;;4192893;28;20052;-66
2022/06/19 03:04:23;;;;;;;0.00;0.00;;;22.60;57.50;;;;;;4191564;28;20053;-67
2022/06/19 03:06:46;;;;;;;0.00;0.00;;;22.60;57.60;;;;;;4192602;27;20048;-67
2022/06/19 03:09:08;;;;;;;0.43;0.43;;;22.60;57.70;;;;;;4192403;28;20055;-67
2022/06/19 03:11:30;;;;;;;0.00;0.00;;;22.60;57.70;;;;;;4192829;28;20099;-67
2022/06/19 03:13:52;;;;;;;0.47;0.47;;;22.60;57.70;;;;;;4193029;28;20048;-67
2022/06/19 03:16:14;;;;;;;0.00;0.00;;;22.60;57.80;;;;;;4192224;28;20052;-67
2022/06/19 03:18:38;;;;;;;0.00;0.00;;;22.60;57.70;;;;;;4192775;28;20056;-67
2022/06/19 03:21:00;;;;;;;0.00;0.00;;;22.60;57.70;;;;;;4192163;28;20068;-67
2022/06/19 03:23:24;;;;;;;0.22;0.22;;;22.60;57.70;;;;;;4192617;28;20060;-67
2022/06/19 03:25:46;;;;;;;0.00;0.00;;;22.60;57.70;;;;;;4192772;28;20102;-67
2022/06/19 03:28:08;;;;;;;0.00;0.00;;;22.60;57.70;;;;;;4191890;28;20049;-67
2022/06/19 03:30:30;;;;;;;0.00;0.00;;;22.60;57.80;;;;;;4192258;28;20168;-67
2022/06/19 03:32:52;;;;;;;0.00;0.00;;;22.60;57.80;;;;;;4191838;28;20411;-67
2022/06/19 03:35:15;;;;;;;0.20;0.20;;;22.60;58.00;;;;;;4191601;28;20399;-67
2022/06/19 03:37:37;;;;;;;0.00;0.00;;;22.60;58.70;;;;;;4187540;28;20067;-67
2022/06/19 03:40:01;;;;;;;4.47;1.10;;;22.60;58.10;;;;;;4194770;28;20059;-67
2022/06/19 03:42:23;;;;;;;0.00;0.00;;;22.60;58.10;;;;;;4194008;28;20388;-67
2022/06/19 03:44:45;;;;;;;0.00;0.00;;;22.60;58.10;;;;;;4194147;28;20475;-66
2022/06/19 03:47:07;;;;;;;0.00;0.00;;;22.60;58.20;;;;;;4195615;28;20052;-67
2022/06/19 03:49:29;;;;;;;1.75;0.98;;;22.60;58.10;;;;;;4194145;28;20098;-67
2022/06/19 03:51:51;;;;;;;0.22;0.22;;;22.60;58.10;;;;;;4193998;28;20036;-66
2022/06/19 03:54:13;;;;;;;0.55;0.55;;;22.60;58.10;;;;;;4194694;28;20048;-67
2022/06/19 03:56:38;;;;;;;0.00;0.00;;;22.60;58.00;;;;;;4194822;28;20060;-67
2022/06/19 03:59:07;;;;;;;0.00;0.00;;;22.60;58.40;;;;;;4195710;28;20063;-66
2022/06/19 04:01:33;;;;;;;0.00;0.00;;;22.60;57.40;;;;;;4195019;28;20037;-67
2022/06/19 04:03:56;;;;;;;0.00;0.00;;;22.70;57.60;;;;;;4193729;28;20059;-66
2022/06/19 04:06:21;;;;;;;0.00;0.00;;;22.60;57.40;;;;;;4195179;28;20525;-68
2022/06/19 04:08:44;;;;;;;0.00;0.00;;;22.60;57.50;;;;;;4195196;28;20051;-68
2022/06/19 04:11:07;;;;;;;0.00;0.00;;;22.60;57.70;;;;;;4195404;28;20406;-68
2022/06/19 04:13:30;;;;;;;0.00;0.00;;;22.60;57.50;;;;;;4195265;28;20070;-67
2022/06/19 04:15:52;;;;;;;0.00;0.00;;;22.60;57.90;;;;;;4195323;28;20044;-68
2022/06/19 04:18:14;;;;;;;0.00;0.00;;;22.60;57.90;;;;;;4194736;28;20101;-67
2022/06/19 04:20:36;;;;;;;0.10;0.10;;;22.70;57.70;;;;;;4195524;28;20094;-67
2022/06/19 04:22:58;;;;;;;0.05;0.05;;;22.70;57.90;;;;;;4193447;28;20052;-67
2022/06/19 04:25:20;;;;;;;0.32;0.32;;;22.60;57.80;;;;;;4195111;28;20864;-68
2022/06/19 04:27:43;;;;;;;0.00;0.00;;;22.70;57.80;;;;;;4195310;28;20048;-68
2022/06/19 04:30:07;;;;;;;0.20;0.20;;;22.70;57.10;;;;;;4194633;28;20076;-68
2022/06/19 04:32:30;;;;;;;0.28;0.28;;;22.70;56.90;;;;;;4194422;28;20048;-68
2022/06/19 04:34:52;;;;;;;0.00;0.00;;;22.60;57.00;;;;;;4194614;28;20049;-68
2022/06/19 04:37:15;;;;;;;0.00;0.00;;;22.60;56.60;;;;;;4194414;28;20507;-68
2022/06/19 04:39:37;;;;;;;0.00;0.00;;;22.60;57.30;;;;;;4194356;28;20071;-68
2022/06/19 04:41:59;;;;;;;0.00;0.00;;;22.60;56.80;;;;;;4161418;28;20075;-68
2022/06/19 04:44:21;;;;;;;0.00;0.00;;;22.50;56.80;;;;;;4161082;28;21213;-68
2022/06/19 04:46:46;;;;;;;0.00;0.00;;;22.50;56.90;;;;;;4161689;28;20055;-68
2022/06/19 04:49:09;;;;;;;0.00;0.00;;;22.50;57.30;;;;;;4160117;28;20069;-68
2022/06/19 04:51:33;;;;;;;0.00;0.00;;;22.50;57.40;;;;;;4161710;28;20385;-68
2022/06/19 04:53:55;;;;;;;0.00;0.00;;;22.50;57.40;;;;;;4161153;28;20075;-68
2022/06/19 04:56:18;;;;;;;0.00;0.00;;;22.40;57.00;;;;;;4161709;28;20507;-68
2022/06/19 04:58:40;;;;;;;0.22;0.22;;;22.40;57.20;;;;;;4161495;28;20123;-68
2022/06/19 05:01:05;;;;;;;0.00;0.00;;;22.40;57.20;;;;;;4161503;28;20107;-68
2022/06/19 05:03:28;;;;;;;0.00;0.00;;;22.40;57.80;;;;;;4193567;28;20051;-68
2022/06/19 05:05:56;;;;;;;0.10;0.10;;;22.30;57.00;;;;;;4194019;28;20568;-68
2022/06/19 05:08:18;;;;;;;0.10;0.10;;;22.30;57.20;;;;;;4194333;28;20098;-67
2022/06/19 05:10:41;;;;;;;0.00;0.00;;;22.30;57.20;;;;;;4194938;28;20067;-67
2022/06/19 05:13:05;;;;;;;0.00;0.00;;;22.20;57.00;;;;;;4194139;28;20139;-68
2022/06/19 05:15:27;;;;;;;0.10;0.10;;;22.20;57.00;;;;;;4193623;28;20048;-68
2022/06/19 05:17:49;;;;;;;0.55;0.35;;;22.20;57.10;;;;;;4192856;28;20045;-68
2022/06/19 05:20:13;;;;;;;0.00;0.00;;;22.10;57.00;;;;;;4193734;28;20410;-69
2022/06/19 05:22:36;;;;;;;0.00;0.00;;;22.10;57.00;;;;;;4192200;28;20573;-67
2022/06/19 05:24:58;;;;;;;0.00;0.00;;;22.10;57.10;;;;;;4192829;28;20128;-67
2022/06/19 05:27:20;;;;;;;0.00;0.00;;;22.10;57.20;;;;;;4194145;28;20055;-67
2022/06/19 05:29:43;;;;;;;0.90;0.73;;;22.10;57.30;;;;;;4192275;28;20044;-67
2022/06/19 05:32:05;;;;;;;0.00;0.00;;;22.00;57.40;;;;;;4193677;28;20065;-68
2022/06/19 05:34:27;;;;;;;0.00;0.00;;;22.00;57.60;;;;;;4193968;28;20475;-68
2022/06/19 05:36:50;;;;;;;0.60;0.55;;;22.00;58.50;;;;;;4193700;28;20487;-67
2022/06/19 05:39:12;;;;;;;0.00;0.00;;;22.00;58.20;;;;;;4193552;28;20044;-67
2022/06/19 05:41:34;;;;;;;0.00;0.00;;;22.00;58.30;;;;;;4193422;28;20127;-67
2022/06/19 05:43:57;;;;;;;0.00;0.00;;;22.00;58.50;;;;;;4193513;28;20056;-67
2022/06/19 05:46:20;;;;;;;0.00;0.00;;;22.00;58.60;;;;;;4193057;28;20447;-67
2022/06/19 05:48:43;;;;;;;0.98;0.75;;;22.00;58.50;;;;;;4194178;28;20514;-67
2022/06/19 05:51:07;;;;;;;0.00;0.00;;;22.00;58.60;;;;;;4193453;28;20056;-68
2022/06/19 05:53:34;;;;;;;0.00;0.00;;;21.90;58.70;;;;;;4160043;28;20053;-67
2022/06/19 05:55:56;;;;;;;0.10;0.10;;;21.90;58.70;;;;;;4160756;28;20045;-67
2022/06/19 05:58:18;;;;;;;0.00;0.00;;;21.90;58.80;;;;;;4160637;28;20045;-67
2022/06/19 06:00:40;;;;;;;0.00;0.00;;;21.90;58.80;;;;;;4160536;28;20049;-67
2022/06/19 06:03:02;;;;;;;0.10;0.10;;;21.90;58.90;;;;;;4187198;28;20055;-68
2022/06/19 06:05:24;;;;;;;0.00;0.00;;;21.90;58.80;;;;;;4192190;28;20044;-69
2022/06/19 06:07:49;;;;;;;0.00;0.00;;;21.90;58.90;;;;;;4193070;28;20053;-69
2022/06/19 06:10:12;;;;;;;0.00;0.00;;;21.90;59.10;;;;;;4192967;28;20041;-69
2022/06/19 06:12:34;;;;;;;0.17;0.17;;;21.90;59.90;;;;;;4191677;28;20592;-68
2022/06/19 06:14:56;;;;;;;0.00;0.00;;;21.90;59.30;;;;;;4192431;28;20488;-68
2022/06/19 06:17:18;;;;;;;0.00;0.00;;;21.90;59.50;;;;;;4193333;28;20053;-68
2022/06/19 06:19:41;;;;;;;0.00;0.00;;;21.90;59.60;;;;;;4193426;28;20131;-68
2022/06/19 06:22:04;;;;;;;0.00;0.00;;;21.80;59.60;;;;;;4193156;28;20072;-68
2022/06/19 06:24:26;;;;;;;0.00;0.00;;;21.80;59.60;;;;;;4192011;28;20140;-68
2022/06/19 06:26:49;;;;;;;0.00;0.00;;;21.80;59.30;;;;;;4190117;28;20037;-67
2022/06/19 06:29:11;;;;;;;0.52;0.52;;;21.80;59.30;;;;;;4191248;28;20067;-67
2022/06/19 06:31:34;;;;;;;0.00;0.00;;;21.80;59.30;;;;;;4191430;28;20098;-67
2022/06/19 06:33:56;;;;;;;0.00;0.00;;;21.80;60.00;;;;;;4192773;28;20102;-68
2022/06/19 06:36:18;;;;;;;0.30;0.30;;;21.70;59.10;;;;;;4192238;28;20064;-67
2022/06/19 06:38:41;;;;;;;0.00;0.00;;;21.70;59.90;;;;;;4192581;28;20494;-67
2022/06/19 06:41:05;;;;;;;0.00;0.00;;;21.70;59.20;;;;;;4193167;28;20458;-66
2022/06/19 06:43:29;;;;;;;0.40;0.40;;;21.70;60.50;;;;;;4178640;28;20099;-67
2022/06/19 06:45:51;;;;;;;0.00;0.00;;;21.70;59.60;;;;;;4174655;28;20484;-67
2022/06/19 06:48:13;;;;;;;0.40;0.40;;;21.70;59.60;;;;;;4167356;28;20190;-67
2022/06/19 06:50:37;;;;;;;0.00;0.00;;;21.70;60.40;;;;;;4167174;28;20045;-67
2022/06/19 06:52:59;;;;;;;0.00;0.00;;;21.70;59.60;;;;;;4176127;28;20055;-67
2022/06/19 06:55:21;;;;;;;0.00;0.00;;;21.70;59.70;;;;;;4176361;28;20442;-66
2022/06/19 06:57:43;;;;;;;0.00;0.00;;;21.80;59.70;;;;;;4192035;28;20063;-66
2022/06/19 07:00:17;;;;;;;0.00;0.00;;;21.80;59.70;;;;;;4182440;28;20060;-66
2022/06/19 07:02:39;;;;;;;0.00;0.00;;;21.80;59.60;;;;;;4163559;28;20056;-65
2022/06/19 07:05:01;;;;;;;0.25;0.25;;;21.80;59.60;;;;;;4160106;28;20041;-65
2022/06/19 07:07:24;;;;;;;0.00;0.00;;;21.80;59.60;;;;;;4160732;28;20057;-65
2022/06/19 07:09:46;;;;;;;0.00;0.00;;;21.80;59.60;;;;;;4162124;28;20106;-65
2022/06/19 07:12:09;;;;;;;0.00;0.00;;;21.80;59.60;;;;;;4176259;28;20061;-65
2022/06/19 07:14:31;;;;;;;1.65;1.65;;;21.80;59.50;;;;;;4175412;28;20041;-66
2022/06/19 07:16:55;;;;;;;0.00;0.00;;;21.80;59.50;;;;;;4176544;28;20395;-65
2022/06/19 07:19:17;;;;;;;0.00;0.00;;;21.80;59.60;;;;;;4176017;28;20415;-65
2022/06/19 07:21:39;;;;;;;0.00;0.00;;;21.80;59.60;;;;;;4191331;28;20087;-65
2022/06/19 07:24:01;;;;;;;0.00;0.00;;;21.80;59.70;;;;;;4192525;28;20068;-65
2022/06/19 07:26:24;;;;;;;0.00;0.00;;;21.80;59.70;;;;;;4191573;28;20094;-64
2022/06/19 07:28:47;;;;;;;0.00;0.00;;;21.80;59.80;;;;;;4192709;28;20044;-65
2022/06/19 07:31:15;;;;;;;0.00;0.00;;;21.80;59.80;;;;;;4192163;28;20129;-64
2022/06/19 07:33:39;;;;;;;0.00;0.00;;;21.90;59.80;;;;;;4192618;28;20587;-65
2022/06/19 07:36:01;;;;;;;0.00;0.00;;;21.90;59.70;;;;;;4183201;28;20163;-65
2022/06/19 07:38:23;;;;;;;0.00;0.00;;;21.90;59.80;;;;;;4175507;28;20057;-65
2022/06/19 07:40:46;;;;;;;0.00;0.00;;;21.90;59.80;;;;;;4174513;28;20045;-65
2022/06/19 07:43:09;;;;;;;0.17;0.17;;;21.90;59.80;;;;;;4175519;28;20081;-65
2022/06/19 07:45:31;;;;;;;0.00;0.00;;;21.90;59.90;;;;;;4192613;28;20159;-65
2022/06/19 07:50:34;;;;;;;0.00;0.00;;;21.90;59.90;;;;;;4186487;28;20131;-66
2022/06/19 07:52:57;;;;;;;0.00;0.00;;;21.90;59.90;;;;;;4184599;28;20062;-66
2022/06/19 07:55:22;;;;;;;0.00;0.00;;;21.90;60.80;;;;;;4159347;28;20046;-66
2022/06/19 07:57:45;;;;;;;0.00;0.00;;;21.90;59.90;;;;;;4159159;28;20416;-66
2022/06/19 08:00:09;;;;;;;0.00;0.00;;;21.90;60.00;;;;;;4159029;28;20061;-66
2022/06/19 08:02:31;;;;;;;0.00;0.00;;;21.90;60.10;;;;;;4170041;28;20454;-66
2022/06/19 08:04:54;;;;;;;0.00;0.00;;;21.90;60.20;;;;;;4191916;28;20056;-66
2022/06/19 08:07:18;;;;;;;0.00;0.00;;;21.90;60.20;;;;;;4191391;28;20487;-66
2022/06/19 08:09:40;;;;;;;0.03;0.03;;;21.90;60.30;;;;;;4185942;28;20136;-66
2022/06/19 08:12:03;;;;;;;1.13;1.00;;;21.90;60.10;;;;;;4175913;28;20545;-66
2022/06/19 08:14:25;;;;;;;0.00;0.00;;;22.00;60.30;;;;;;4188543;28;20059;-66
2022/06/19 08:16:47;;;;;;;0.00;0.00;;;21.90;60.30;;;;;;4191429;28;20107;-66
2022/06/19 08:19:14;;;;;;;0.00;0.00;;;22.00;60.30;;;;;;4190865;28;20439;-66
2022/06/19 08:21:37;;;;;;;0.00;0.00;;;22.00;60.30;;;;;;4190043;28;20052;-67
2022/06/19 08:24:00;;;;;;;0.00;0.00;;;22.00;60.30;;;;;;4191600;28;20049;-67
2022/06/19 08:26:23;;;;;;;0.00;0.00;;;22.00;61.10;;;;;;4193914;28;20483;-66
2022/06/19 08:28:48;;;;;;;0.00;0.00;;;22.00;60.20;;;;;;4194391;28;20053;-66
2022/06/19 08:31:10;;;;;;;0.00;0.00;;;22.00;60.20;;;;;;4192775;28;20446;-67
2022/06/19 08:33:32;;;;;;;0.00;0.00;;;22.00;60.10;;;;;;4183630;28;20048;-67
2022/06/19 08:35:58;;;;;;;0.00;0.00;;;22.00;60.10;;;;;;4177480;28;20063;-67
2022/06/19 08:38:24;;;;;;;0.00;0.00;;;22.00;60.20;;;;;;4177628;28;20119;-66
2022/06/19 08:41:24;;;;;;;0.00;0.00;;;22.00;60.10;;;;;;4177933;28;20365;-67
2022/06/19 08:44:04;;;;;;;4.20;0.75;;;22.00;59.90;;;;;;4172117;28;20075;-67
2022/06/19 08:46:37;;;;;;;0.00;0.00;;;22.00;59.90;;;;;;4177685;28;20068;-66
2022/06/19 08:49:22;;;;;;;0.00;0.00;;;21.90;60.00;;;;;;4177786;28;20048;-67
2022/06/19 08:51:54;;;;;;;0.00;0.00;;;21.90;60.10;;;;;;4177440;28;20454;-66
2022/06/19 08:54:38;;;;;;;0.00;0.00;;;21.90;59.90;;;;;;4177345;28;20053;-66
2022/06/19 08:57:10;;;;;;;0.00;0.00;;;21.90;59.80;;;;;;4177605;28;20127;-66
2022/06/19 08:59:35;;;;;;;;;;;22.00;59.90;;;;;;4177727;28;20553;-66
2022/06/19 09:02:04;;;;;;;0.00;0.00;;;21.90;59.80;;;;;;4177089;28;19986;-66
2022/06/19 09:07:33;;;;;;;0.00;0.00;;;21.90;60.20;;;;;;4177394;28;20132;-66
2022/06/19 09:10:13;;;;;;;0.00;0.00;;;22.00;60.20;;;;;;4177205;28;20140;-66
2022/06/19 09:12:55;;;;;;;0.15;0.15;;;22.00;59.60;;;;;;4176858;28;20041;-66
2022/06/19 09:15:24;;;;;;;0.00;0.00;;;22.00;59.50;;;;;;4177114;28;20087;-66
2022/06/19 09:17:56;;;;;;;0.00;0.00;;;21.90;59.50;;;;;;4176921;28;20063;-66
2022/06/19 09:20:30;;;;;;;0.00;0.00;;;22.00;59.80;;;;;;4177206;28;20056;-66
2022/06/19 09:23:18;;;;;;;0.30;0.30;;;21.90;59.80;;;;;;4176621;28;20134;-66
2022/06/19 09:25:46;;;;;;;0.00;0.00;;;21.90;59.60;;;;;;4175920;28;20051;-68
2022/06/19 09:28:17;;;;;;;0.52;0.52;;;21.90;59.80;;;;;;4176906;28;20049;-68
2022/06/19 09:30:43;;;;;;;0.00;0.00;;;21.90;59.40;;;;;;4177166;28;20125;-68
2022/06/19 09:33:12;;;;;;;0.20;0.20;;;21.90;58.90;;;;;;4175409;28;20135;-68
2022/06/19 09:35:39;;;;;;;0.00;0.00;;;21.90;58.50;;;;;;4177216;28;20045;-68
2022/06/19 09:38:05;;;;;;;0.00;0.00;;;21.90;58.40;;;;;;4175376;28;20140;-67
2022/06/19 09:40:30;;;;;;;0.00;0.00;;;21.90;58.30;;;;;;4177154;28;20056;-68
2022/06/19 09:42:59;;;;;;;0.20;0.20;;;21.80;58.30;;;;;;4176836;28;20063;-69
2022/06/19 09:45:25;;;;;;;0.38;0.38;;;21.80;58.10;;;;;;4176901;28;20102;-68
2022/06/19 09:47:57;;;;;;;0.00;0.00;;;21.80;57.80;;;;;;4177224;28;20381;-69
2022/06/19 09:50:40;;;;;;;0.00;0.00;;;21.80;57.90;;;;;;4160097;28;20049;-69
2022/06/19 09:53:07;;;;;;;0.00;0.00;;;21.80;58.00;;;;;;4159541;28;20088;-66
2022/06/19 09:55:34;;;;;;;0.00;0.00;;;21.80;58.10;;;;;;4143583;28;20056;-66
2022/06/19 09:58:04;;;;;;;0.00;0.00;;;21.80;58.10;;;;;;4143585;28;20099;-66
2022/06/19 10:00:32;;;;;;;0.10;0.10;;;21.80;57.90;;;;;;4143708;28;20476;-66
2022/06/19 10:03:20;;;;;;;0.00;0.00;;;21.70;58.00;;;;;;4143036;28;20050;-65
2022/06/19 10:05:47;;;;;;;0.00;0.00;;;21.70;58.80;;;;;;4143120;28;20065;-66
2022/06/19 10:08:14;;;;;;;0.00;0.00;;;21.70;58.20;;;;;;4143686;28;20061;-65
2022/06/19 10:10:43;;;;;;;0.00;0.00;;;21.70;58.20;;;;;;4156794;28;20182;-65
2022/06/19 10:13:12;;;;;;;0.00;0.00;;;21.70;58.10;;;;;;4159191;28;20061;-65
2022/06/19 10:15:37;;;;;;;0.00;0.00;;;21.70;58.90;;;;;;4159882;28;20056;-65
2022/06/19 10:18:05;;;;;;;0.00;0.00;;;21.70;58.40;;;;;;4174161;28;21023;-66
2022/06/19 10:20:37;;;;;;;0.00;0.00;;;21.70;58.50;;;;;;4170917;28;20111;-66
2022/06/19 10:23:11;;;;;;;0.00;0.00;;;21.70;58.20;;;;;;4174465;28;20528;-66
2022/06/19 10:25:43;;;;;;;0.00;0.00;;;21.70;58.10;;;;;;4175597;28;20045;-66
2022/06/19 10:28:21;;;;;;;0.00;0.00;;;21.70;58.40;;;;;;4176128;28;20057;-66
2022/06/19 10:30:59;;;;;;;0.20;0.20;;;21.70;58.60;;;;;;4175897;28;20075;-65
2022/06/19 10:33:35;;;;;;;0.00;0.00;;;21.70;58.80;;;;;;4175506;28;20056;-65
2022/06/19 10:36:02;;;;;;;0.45;0.32;;;21.80;58.90;;;;;;4169394;28;20064;-66
2022/06/19 10:38:43;;;;;;;0.00;0.00;;;21.80;58.40;;;;;;4174227;28;20045;-65
2022/06/19 10:42:00;;;;;;;0.40;0.40;;;21.80;58.20;;;;;;4175690;28;20060;-66
2022/06/19 10:44:02;;;;;;;0.00;0.00;;;21.80;58.00;;;;;;4202287;28;20448;-67
2022/06/19 10:46:26;;;;;;;0.00;0.00;;;21.80;57.80;;;;;;4175674;28;20040;-66
2022/06/19 10:49:02;;;;;;;0.00;0.00;;;21.80;58.00;;;;;;4175327;28;20550;-66
2022/06/19 10:51:38;;;;;;;0.00;0.00;;;21.80;58.10;;;;;;4174995;28;20082;-66
2022/06/19 10:54:17;;;;;;;0.00;0.00;;;21.80;58.10;;;;;;4174586;28;20048;-66
2022/06/19 10:56:48;;;;;;;0.20;0.20;;;21.80;57.70;;;;;;4174208;28;20049;-67
2022/06/19 10:59:10;;;;;;;0.15;0.15;;;21.80;57.80;;;;;;4177186;28;20100;-66
2022/06/19 11:04:22;;;;;;;0.08;0.08;;;21.80;58.10;;;;;;4179825;28;20048;-67
2022/06/19 11:06:50;;;;;;;0.00;0.00;;;21.80;57.80;;;;;;4178165;28;20045;-67
2022/06/19 11:09:19;;;;;;;0.15;0.15;;;21.80;57.80;;;;;;4191558;28;20109;-66
2022/06/19 11:11:42;;;;;;;0.00;0.00;;;21.80;58.40;;;;;;4191976;28;22230;-67
2022/06/19 11:14:09;;;;;;;0.00;0.00;;;21.80;57.70;;;;;;4191203;28;20110;-67
2022/06/19 11:16:33;;;;;;;0.00;0.00;;;21.80;58.00;;;;;;4192098;28;20064;-67
2022/06/19 11:18:57;;;;;;;0.10;0.10;;;21.70;58.10;;;;;;4192067;28;20048;-66
2022/06/19 11:21:23;;;;;;;0.00;0.00;;;21.80;58.30;;;;;;4192381;28;20076;-66
2022/06/19 11:23:54;;;;;;;0.00;0.00;;;21.80;58.30;;;;;;4192534;28;20067;-66
2022/06/19 11:26:19;;;;;;;0.00;0.00;;;21.80;58.40;;;;;;4172076;28;20445;-66
2022/06/19 11:28:51;;;;;;;0.10;0.10;;;21.80;58.30;;;;;;4175242;28;20164;-67
2022/06/19 11:31:18;;;;;;;0.13;0.13;;;21.80;58.10;;;;;;4175306;28;20063;-66
2022/06/19 11:33:43;;;;;;;0.00;0.00;;;21.80;58.30;;;;;;4184934;28;20495;-66
2022/06/19 11:36:08;;;;;;;0.00;0.00;;;21.80;58.40;;;;;;4191313;28;20364;-67
2022/06/19 11:38:36;;;;;;;0.00;0.00;;;21.80;58.50;;;;;;4191656;28;20503;-67
2022/06/19 11:40:58;;;;;;;0.00;0.00;;;21.80;58.60;;;;;;4191553;28;20534;-66
2022/06/19 11:43:31;;;;;;;0.00;0.00;;;21.70;58.70;;;;;;4191867;28;20131;-67
2022/06/19 11:46:04;;;;;;;0.00;0.00;;;21.80;58.90;;;;;;4190028;28;20535;-67
2022/06/19 11:48:26;;;;;;;0.30;0.30;;;21.80;59.20;;;;;;4190215;28;20053;-67
2022/06/19 11:50:52;;;;;;;0.00;0.00;;;21.80;59.40;;;;;;4191972;28;20102;-67
2022/06/19 11:53:17;;;;;;;0.10;0.10;;;21.80;59.30;;;;;;4191217;28;20506;-67
2022/06/19 11:55:43;;;;;;;0.00;0.00;;;21.80;59.20;;;;;;4191461;28;20044;-67
2022/06/19 11:58:20;;;;;;;0.00;0.00;;;21.70;59.30;;;;;;4191939;28;20064;-67
2022/06/19 12:00:45;;;;;;;0.00;0.00;;;21.80;59.00;;;;;;4193069;28;20090;-67
2022/06/19 12:03:19;;;;;;;0.00;0.00;;;21.80;59.20;;;;;;4195148;28;20127;-68
2022/06/19 12:05:51;;;;;;;0.00;0.00;;;21.80;59.20;;;;;;4192992;28;20550;-68
2022/06/19 12:08:20;;;;;;;1.65;0.45;;;21.80;59.20;;;;;;4193802;28;20974;-67
2022/06/19 12:10:43;;;;;;;0.50;0.50;;;21.70;59.20;;;;;;4194552;28;20056;-67
2022/06/19 12:13:15;;;;;;;0.00;0.00;;;21.70;59.10;;;;;;4195165;28;20526;-67
2022/06/19 12:15:37;;;;;;;0.00;0.00;;;21.70;59.20;;;;;;4194370;28;20068;-68
2022/06/19 12:18:02;;;;;;;0.00;0.00;;;21.70;59.20;;;;;;4194504;28;20079;-68
2022/06/19 12:20:28;;;;;;;0.00;0.00;;;21.70;59.10;;;;;;4194877;28;20052;-68
2022/06/19 12:22:57;;;;;;;0.00;0.00;;;21.70;59.20;;;;;;4194572;28;20098;-68
2022/06/19 12:25:38;;;;;;;0.00;0.00;;;21.70;59.30;;;;;;4181992;28;20146;-68
2022/06/19 12:28:06;;;;;;;0.00;0.00;;;21.70;59.50;;;;;;4177654;28;20056;-68
2022/06/19 12:30:33;;;;;;;0.00;0.00;;;21.60;59.10;;;;;;4193032;28;20140;-68
2022/06/19 12:32:57;;;;;;;0.63;0.63;;;21.70;59.10;;;;;;4194198;28;20040;-68
2022/06/19 12:35:29;;;;;;;0.00;0.00;;;21.60;59.10;;;;;;4193948;28;20041;-68
2022/06/19 12:37:52;;;;;;;0.00;0.00;;;21.70;59.10;;;;;;4193796;28;20399;-68
2022/06/19 12:40:18;;;;;;;0.00;0.00;;;21.60;58.80;;;;;;4194100;28;20117;-68
2022/06/19 12:42:48;;;;;;;0.00;0.00;;;21.60;58.90;;;;;;4193824;28;20048;-68
2022/06/19 12:45:21;;;;;;;0.20;0.20;;;21.60;58.80;;;;;;4194062;28;20049;-68
2022/06/19 12:47:51;;;;;;;0.00;0.00;;;21.60;58.90;;;;;;4192215;28;20297;-69
2022/06/19 12:50:45;;;;;;;0.00;0.00;;;21.60;58.90;;;;;;4193013;28;20048;-68